Time;durP1;ratioP1;P1;durP2;ratioP2;P2;SDS_P1;SDS_P2;PMS_P1;PMS_P2;Temp;Humidity;BMP_temperature;BMP_pressure;BME280_temperature;BME280_humidity;BME280_pressure;Samples;Min_cycle;Max_cycle;Signal;HPM_P1;HPM_P2
2021/07/09 00:02:06;;;;;;;;;;;19.20;99.90;;;;;;5075202;28;19917;-60
2021/07/09 00:04:32;;;;;;;;;;;19.20;99.90;;;;;;5067102;28;19924;-60
2021/07/09 00:06:58;;;;;;;;;;;19.20;99.90;;;;;;5057425;28;20334;-60
2021/07/09 00:09:24;;;;;;;;;;;19.10;99.90;;;;;;5062166;28;19968;-60
2021/07/09 00:11:50;;;;;;;;;;;19.10;99.90;;;;;;5054617;28;19909;-60
2021/07/09 00:14:16;;;;;;;;;;;19.00;99.90;;;;;;5070367;28;19912;-60
2021/07/09 00:16:45;;;;;;;;;;;19.00;99.90;;;;;;5058643;28;20421;-60
2021/07/09 00:19:11;;;;;;;;;;;18.90;99.90;;;;;;5054514;28;19912;-62
2021/07/09 00:21:37;;;;;;;;;;;18.90;99.90;;;;;;5071067;28;19924;-60
2021/07/09 00:24:04;;;;;;;;;;;18.90;99.90;;;;;;5065394;28;19935;-61
2021/07/09 00:26:30;;;;;;;;;;;18.80;99.90;;;;;;5052623;28;19909;-61
2021/07/09 00:28:57;;;;;;;;;;;18.80;99.90;;;;;;5068444;28;19962;-61
2021/07/09 00:31:24;;;;;;;;;;;18.80;99.90;;;;;;5069842;28;19915;-61
2021/07/09 00:33:50;;;;;;;;;;;18.70;99.90;;;;;;5063011;28;20357;-61
2021/07/09 00:36:16;;;;;;;;;;;18.80;99.90;;;;;;5061825;28;19946;-61
2021/07/09 00:38:42;;;;;;;;;;;18.70;99.90;;;;;;5064616;28;19904;-61
2021/07/09 00:41:07;;;;;;;;;;;18.80;99.90;;;;;;5053796;28;19916;-61
2021/07/09 00:43:33;;;;;;;;;;;18.70;99.90;;;;;;5059714;28;19923;-62
2021/07/09 00:45:59;;;;;;;;;;;18.60;99.90;;;;;;5061015;28;20336;-60
2021/07/09 00:48:28;;;;;;;;;;;18.60;99.90;;;;;;5069684;28;19921;-60
2021/07/09 00:51:00;;;;;;;;;;;18.60;99.90;;;;;;5065171;28;19908;-59
2021/07/09 00:53:26;;;;;;;;;;;18.50;99.90;;;;;;5063880;28;19915;-59
2021/07/09 00:55:52;;;;;;;;;;;18.50;99.90;;;;;;5064661;28;19923;-59
2021/07/09 00:58:19;;;;;;;;;;;18.50;99.90;;;;;;5050439;28;19915;-59
2021/07/09 01:00:45;;;;;;;;;;;18.50;99.90;;;;;;5052882;28;19909;-59
2021/07/09 01:03:11;;;;;;;;;;;18.40;99.90;;;;;;5059446;28;19909;-60
2021/07/09 01:05:37;;;;;;;;;;;18.40;99.90;;;;;;5066117;28;19924;-61
2021/07/09 01:08:04;;;;;;;;;;;18.40;99.90;;;;;;5050295;28;20367;-60
2021/07/09 01:10:30;;;;;;;;;;;18.40;99.90;;;;;;5054222;28;20419;-60
2021/07/09 01:12:56;;;;;;;;;;;18.40;99.90;;;;;;5069669;28;19916;-60
2021/07/09 01:15:22;;;;;;;;;;;18.30;99.90;;;;;;5052929;28;19915;-60
2021/07/09 01:17:48;;;;;;;;;;;18.20;99.90;;;;;;5064897;28;20292;-61
2021/07/09 01:20:15;;;;;;;;;;;18.20;99.90;;;;;;5059797;28;19916;-60
2021/07/09 01:22:44;;;;;;;;;;;18.20;99.90;;;;;;5061481;28;20363;-60
2021/07/09 01:25:11;;;;;;;;;;;18.10;99.90;;;;;;5054946;28;19911;-61
2021/07/09 01:27:37;;;;;;;;;;;18.10;99.90;;;;;;5066934;28;19904;-60
2021/07/09 01:30:07;;;;;;;;;;;18.00;99.90;;;;;;5067304;28;19908;-60
2021/07/09 01:32:32;;;;;;;;;;;18.00;99.90;;;;;;5060207;28;20320;-61
2021/07/09 01:34:58;;;;;;;;;;;18.00;99.90;;;;;;5063067;28;19912;-60
2021/07/09 01:37:24;;;;;;;;;;;18.00;99.90;;;;;;5065595;28;19920;-60
2021/07/09 01:39:50;;;;;;;;;;;18.00;99.90;;;;;;5065008;28;19908;-61
2021/07/09 01:42:16;;;;;;;;;;;17.90;99.90;;;;;;5063058;28;20269;-60
2021/07/09 01:44:42;;;;;;;;;;;17.90;99.90;;;;;;5059799;28;20369;-60
2021/07/09 01:47:08;;;;;;;;;;;17.90;99.90;;;;;;5066234;28;19912;-61
2021/07/09 01:49:53;;;;;;;;;;;17.90;99.90;;;;;;5065128;28;19916;-61
2021/07/09 01:52:20;;;;;;;;;;;17.80;99.90;;;;;;5062177;28;19917;-60
2021/07/09 01:54:46;;;;;;;;;;;17.80;99.90;;;;;;5063317;28;19919;-59
2021/07/09 01:57:12;;;;;;;;;;;17.80;99.90;;;;;;5069952;28;19920;-60
2021/07/09 01:59:38;;;;;;;;;;;17.70;99.90;;;;;;5066432;28;19935;-61
2021/07/09 02:02:05;;;;;;;;;;;17.70;99.90;;;;;;5071272;28;19913;-61
2021/07/09 02:04:30;;;;;;;;;;;17.80;99.90;;;;;;5063965;28;19920;-61
2021/07/09 02:06:56;;;;;;;;;;;17.80;99.90;;;;;;5065629;28;19916;-61
2021/07/09 02:09:22;;;;;;;;;;;17.80;99.90;;;;;;5065290;28;19920;-61
2021/07/09 02:11:48;;;;;;;;;;;17.80;99.90;;;;;;5054509;28;19915;-61
2021/07/09 02:14:14;;;;;;;;;;;17.70;99.90;;;;;;5060962;28;19912;-61
2021/07/09 02:16:40;;;;;;;;;;;17.80;99.90;;;;;;5066401;28;19921;-61
2021/07/09 02:19:07;;;;;;;;;;;17.70;99.90;;;;;;5073570;28;19924;-62
2021/07/09 02:21:33;;;;;;;;;;;17.70;99.90;;;;;;5073241;28;19912;-61
2021/07/09 02:23:59;;;;;;;;;;;17.70;99.90;;;;;;5055760;28;19912;-61
2021/07/09 02:26:25;;;;;;;;;;;17.60;99.90;;;;;;5067691;28;20416;-61
2021/07/09 02:28:51;;;;;;;;;;;17.50;99.90;;;;;;5062369;28;19916;-60
2021/07/09 02:31:17;;;;;;;;;;;17.40;99.90;;;;;;5062977;28;19908;-61
2021/07/09 02:33:43;;;;;;;;;;;17.30;99.90;;;;;;5063966;28;20258;-60
2021/07/09 02:36:09;;;;;;;;;;;17.30;99.90;;;;;;5054725;28;19935;-61
2021/07/09 02:38:35;;;;;;;;;;;17.30;99.90;;;;;;5068713;28;19995;-61
2021/07/09 02:41:01;;;;;;;;;;;17.30;99.90;;;;;;5066477;28;20305;-61
2021/07/09 02:43:27;;;;;;;;;;;17.30;99.90;;;;;;5067137;28;19964;-61
2021/07/09 02:45:53;;;;;;;;;;;17.30;99.90;;;;;;5069247;28;19912;-61
2021/07/09 02:48:19;;;;;;;;;;;17.30;99.90;;;;;;5053740;28;19913;-61
2021/07/09 02:50:45;;;;;;;;;;;17.30;99.90;;;;;;5072908;28;20400;-59
2021/07/09 02:53:11;;;;;;;;;;;17.20;99.90;;;;;;5068010;28;19916;-60
2021/07/09 02:55:37;;;;;;;;;;;17.30;99.90;;;;;;5062778;28;19913;-60
2021/07/09 02:58:03;;;;;;;;;;;17.30;99.90;;;;;;5061502;28;19912;-60
2021/07/09 03:00:29;;;;;;;;;;;17.30;99.90;;;;;;5068650;28;20292;-61
2021/07/09 03:02:55;;;;;;;;;;;17.30;99.90;;;;;;5062034;28;20384;-61
2021/07/09 03:05:20;;;;;;;;;;;17.40;99.90;;;;;;5063808;28;19915;-61
2021/07/09 03:07:46;;;;;;;;;;;17.40;99.90;;;;;;5053097;28;19921;-61
2021/07/09 03:10:12;;;;;;;;;;;17.40;99.90;;;;;;5066767;28;19920;-61
2021/07/09 03:12:38;;;;;;;;;;;17.50;99.90;;;;;;5072265;28;20357;-61
2021/07/09 03:15:05;;;;;;;;;;;17.50;99.90;;;;;;5061131;28;19919;-60
2021/07/09 03:17:31;;;;;;;;;;;17.60;99.90;;;;;;5065338;28;20289;-61
2021/07/09 03:19:57;;;;;;;;;;;17.60;99.90;;;;;;5055345;28;19909;-61
2021/07/09 03:22:23;;;;;;;;;;;17.60;99.90;;;;;;5070379;28;19919;-61
2021/07/09 03:24:49;;;;;;;;;;;17.60;99.90;;;;;;5068482;28;19919;-61
2021/07/09 03:27:15;;;;;;;;;;;17.70;99.90;;;;;;5066491;28;20288;-61
2021/07/09 03:29:41;;;;;;;;;;;17.70;99.90;;;;;;5067192;28;19931;-60
2021/07/09 03:32:07;;;;;;;;;;;17.80;99.90;;;;;;5065256;28;19966;-61
2021/07/09 03:34:33;;;;;;;;;;;17.80;99.90;;;;;;5069876;28;20380;-61
2021/07/09 03:36:59;;;;;;;;;;;17.90;99.90;;;;;;5072276;28;19916;-61
2021/07/09 03:39:24;;;;;;;;;;;17.90;99.90;;;;;;5068272;28;19912;-61
2021/07/09 03:41:50;;;;;;;;;;;18.00;99.90;;;;;;5067820;28;19920;-61
2021/07/09 03:44:16;;;;;;;;;;;18.00;99.90;;;;;;5068206;28;20293;-61
2021/07/09 03:46:42;;;;;;;;;;;18.00;99.90;;;;;;5063593;28;19908;-60
2021/07/09 03:49:08;;;;;;;;;;;18.00;99.90;;;;;;5062003;28;19908;-61
2021/07/09 03:51:35;;;;;;;;;;;18.00;99.90;;;;;;5069877;28;19916;-61
2021/07/09 03:54:00;;;;;;;;;;;18.00;99.90;;;;;;5065800;28;19923;-61
2021/07/09 03:56:29;;;;;;;;;;;18.10;99.90;;;;;;5060737;28;19920;-61
2021/07/09 03:58:56;;;;;;;;;;;18.20;99.90;;;;;;5065530;28;19920;-60
2021/07/09 04:01:22;;;;;;;;;;;18.20;99.90;;;;;;5053750;28;19908;-60
2021/07/09 04:03:48;;;;;;;;;;;18.20;99.90;;;;;;5065847;28;19920;-61
2021/07/09 04:06:13;;;;;;;;;;;18.30;99.90;;;;;;5064738;28;19909;-60
2021/07/09 04:08:39;;;;;;;;;;;18.30;99.90;;;;;;5062664;28;20258;-60
2021/07/09 04:11:05;;;;;;;;;;;18.30;99.90;;;;;;5065064;28;19912;-60
2021/07/09 04:13:31;;;;;;;;;;;18.30;99.90;;;;;;5064396;28;19912;-60
2021/07/09 04:15:57;;;;;;;;;;;18.30;99.90;;;;;;5063340;28;19913;-60
2021/07/09 04:18:23;;;;;;;;;;;18.30;99.90;;;;;;5062998;28;19912;-60
2021/07/09 04:20:49;;;;;;;;;;;18.30;99.90;;;;;;5065477;28;19915;-60
2021/07/09 04:23:15;;;;;;;;;;;18.40;99.90;;;;;;5063192;28;19932;-60
2021/07/09 04:25:41;;;;;;;;;;;18.50;99.90;;;;;;5066391;28;20778;-60
2021/07/09 04:28:07;;;;;;;;;;;18.50;99.90;;;;;;5065963;28;19912;-60
2021/07/09 04:30:33;;;;;;;;;;;18.50;99.90;;;;;;5068069;28;19940;-60
2021/07/09 04:32:58;;;;;;;;;;;18.70;99.90;;;;;;5064257;28;19917;-60
2021/07/09 04:35:24;;;;;;;;;;;18.70;99.90;;;;;;5067850;28;20368;-60
2021/07/09 04:37:50;;;;;;;;;;;18.80;99.90;;;;;;5064896;28;20027;-60
2021/07/09 04:40:16;;;;;;;;;;;18.80;99.90;;;;;;5061612;28;19920;-60
2021/07/09 04:42:42;;;;;;;;;;;18.80;99.90;;;;;;5062214;28;19944;-60
2021/07/09 04:45:08;;;;;;;;;;;18.90;99.90;;;;;;5050825;28;19908;-59
2021/07/09 04:47:34;;;;;;;;;;;19.00;99.90;;;;;;5063416;28;19910;-60
2021/07/09 04:50:00;;;;;;;;;;;19.00;99.90;;;;;;5064396;28;20359;-60
2021/07/09 04:52:26;;;;;;;;;;;19.10;99.90;;;;;;5062675;28;19923;-59
2021/07/09 04:54:53;;;;;;;;;;;19.10;99.90;;;;;;5060193;28;19908;-60
2021/07/09 04:57:20;;;;;;;;;;;19.20;99.90;;;;;;5063587;28;20380;-60
2021/07/09 04:59:45;;;;;;;;;;;19.20;99.90;;;;;;5063738;28;19916;-60
2021/07/09 05:02:11;;;;;;;;;;;19.30;99.90;;;;;;5064245;28;19915;-60
2021/07/09 05:04:37;;;;;;;;;;;19.40;99.90;;;;;;5063476;28;19927;-60
2021/07/09 05:07:03;;;;;;;;;;;19.50;99.90;;;;;;5063611;28;20384;-59
2021/07/09 05:09:29;;;;;;;;;;;19.50;99.90;;;;;;5062552;28;19944;-59
2021/07/09 05:11:55;;;;;;;;;;;19.60;99.90;;;;;;5063523;28;20262;-60
2021/07/09 05:14:21;;;;;;;;;;;19.70;99.90;;;;;;5063611;28;19912;-58
2021/07/09 05:16:47;;;;;;;;;;;19.70;99.90;;;;;;5064074;28;20424;-60
2021/07/09 05:19:13;;;;;;;;;;;19.80;99.90;;;;;;5064371;28;19916;-60
2021/07/09 05:21:39;;;;;;;;;;;19.90;99.90;;;;;;5067136;28;19912;-59
2021/07/09 05:24:07;;;;;;;;;;;19.90;99.90;;;;;;5065402;28;20003;-60
2021/07/09 05:26:34;;;;;;;;;;;20.00;99.90;;;;;;5068292;28;20467;-60
2021/07/09 05:29:00;;;;;;;;;;;20.00;99.90;;;;;;5066687;28;19913;-60
2021/07/09 05:31:25;;;;;;;;;;;20.10;99.90;;;;;;5066466;28;20397;-59
2021/07/09 05:33:51;;;;;;;;;;;20.20;99.90;;;;;;5072709;28;19936;-60
2021/07/09 05:36:19;;;;;;;;;;;20.30;99.90;;;;;;5075454;28;20292;-59
2021/07/09 05:38:45;;;;;;;;;;;20.40;99.90;;;;;;5057889;28;19912;-60
2021/07/09 05:41:11;;;;;;;;;;;20.50;99.90;;;;;;5075773;28;19927;-59
2021/07/09 05:43:37;;;;;;;;;;;20.50;99.90;;;;;;5075558;28;20380;-60
2021/07/09 05:46:03;;;;;;;;;;;20.60;99.90;;;;;;5075867;28;19920;-59
2021/07/09 05:48:29;;;;;;;;;;;20.60;99.90;;;;;;5075118;28;19915;-61
2021/07/09 05:50:54;;;;;;;;;;;20.70;99.90;;;;;;5075235;28;19922;-59
2021/07/09 05:53:20;;;;;;;;;;;20.70;99.90;;;;;;5073857;28;20361;-61
2021/07/09 05:55:46;;;;;;;;;;;20.70;99.90;;;;;;5075436;28;19912;-61
2021/07/09 05:58:13;;;;;;;;;;;20.80;99.90;;;;;;5075682;28;19920;-61
2021/07/09 06:00:41;;;;;;;;;;;20.80;99.90;;;;;;5075605;28;19960;-60
2021/07/09 06:03:07;;;;;;;;;;;21.00;99.90;;;;;;5075239;28;19916;-60
2021/07/09 06:05:33;;;;;;;;;;;21.00;99.90;;;;;;5075317;28;19920;-58
2021/07/09 06:08:02;;;;;;;;;;;21.10;99.80;;;;;;5075349;28;19913;-60
2021/07/09 06:10:28;;;;;;;;;;;21.10;99.70;;;;;;5074755;28;20277;-60
2021/07/09 06:12:54;;;;;;;;;;;21.20;99.90;;;;;;5071048;28;19920;-61
2021/07/09 06:15:20;;;;;;;;;;;21.30;99.90;;;;;;5052566;28;19909;-60
2021/07/09 06:17:47;;;;;;;;;;;21.40;99.40;;;;;;5071704;28;19920;-61
2021/07/09 06:20:13;;;;;;;;;;;21.40;97.80;;;;;;5074137;28;19908;-61
2021/07/09 06:22:39;;;;;;;;;;;21.40;98.10;;;;;;5074579;28;19908;-60
2021/07/09 06:25:05;;;;;;;;;;;21.50;97.40;;;;;;5056814;28;19912;-60
2021/07/09 06:27:31;;;;;;;;;;;21.60;96.50;;;;;;5074857;28;19912;-60
2021/07/09 06:29:57;;;;;;;;;;;21.60;97.10;;;;;;5074698;28;19927;-61
2021/07/09 06:32:23;;;;;;;;;;;21.70;96.90;;;;;;5074606;28;19919;-60
2021/07/09 06:34:49;;;;;;;;;;;21.80;97.50;;;;;;5048026;28;20346;-61
2021/07/09 06:37:15;;;;;;;;;;;21.80;97.30;;;;;;5074506;28;19916;-61
2021/07/09 06:39:40;;;;;;;;;;;21.70;96.80;;;;;;5066263;28;19916;-61
2021/07/09 06:42:06;;;;;;;;;;;21.80;97.30;;;;;;5071952;28;20298;-61
2021/07/09 06:44:32;;;;;;;;;;;22.00;96.70;;;;;;5073843;28;19913;-61
2021/07/09 06:46:58;;;;;;;;;;;22.10;95.40;;;;;;5074499;28;19923;-60
2021/07/09 06:49:24;;;;;;;;;;;22.20;95.90;;;;;;5073742;28;19913;-61
2021/07/09 06:51:50;;;;;;;;;;;22.30;94.90;;;;;;5074710;28;19913;-60
2021/07/09 06:54:16;;;;;;;;;;;22.50;94.00;;;;;;5074499;28;20416;-61
2021/07/09 06:56:42;;;;;;;;;;;22.50;93.70;;;;;;5074235;28;19927;-61
2021/07/09 06:59:08;;;;;;;;;;;22.70;92.00;;;;;;5074414;28;19949;-60
2021/07/09 07:01:34;;;;;;;;;;;22.80;92.40;;;;;;5073580;28;19974;-61
2021/07/09 07:03:59;;;;;;;;;;;22.70;91.60;;;;;;5074146;28;20375;-61
2021/07/09 07:06:25;;;;;;;;;;;22.60;92.00;;;;;;5073637;28;19919;-60
2021/07/09 07:08:51;;;;;;;;;;;22.60;92.10;;;;;;5073914;28;19912;-61
2021/07/09 07:11:17;;;;;;;;;;;22.80;91.10;;;;;;5056307;28;19915;-61
2021/07/09 07:13:43;;;;;;;;;;;23.00;91.80;;;;;;5064958;28;20293;-60
2021/07/09 07:16:09;;;;;;;;;;;23.20;90.30;;;;;;5073965;28;19913;-61
2021/07/09 07:18:35;;;;;;;;;;;23.30;90.60;;;;;;5073891;28;20055;-61
2021/07/09 07:21:01;;;;;;;;;;;23.20;90.00;;;;;;5073216;28;20633;-61
2021/07/09 07:23:27;;;;;;;;;;;23.40;90.00;;;;;;5056116;28;19942;-60
2021/07/09 07:25:53;;;;;;;;;;;23.60;88.80;;;;;;5073854;28;20245;-60
2021/07/09 07:28:19;;;;;;;;;;;23.70;86.70;;;;;;5073845;28;19920;-60
2021/07/09 07:30:45;;;;;;;;;;;23.80;87.40;;;;;;5064923;28;19913;-60
2021/07/09 07:33:11;;;;;;;;;;;24.00;86.10;;;;;;5074133;28;20384;-61
2021/07/09 07:35:40;;;;;;;;;;;24.10;85.00;;;;;;5071260;28;19919;-59
2021/07/09 07:38:06;;;;;;;;;;;24.20;84.50;;;;;;5055833;28;19924;-61
2021/07/09 07:40:32;;;;;;;;;;;24.40;83.90;;;;;;5067888;28;19916;-60
2021/07/09 07:42:58;;;;;;;;;;;24.40;84.30;;;;;;5073639;28;19912;-59
2021/07/09 07:45:24;;;;;;;;;;;24.50;83.70;;;;;;5073815;28;19912;-60
2021/07/09 07:47:50;;;;;;;;;;;24.60;82.00;;;;;;5052447;28;20043;-60
2021/07/09 07:50:21;;;;;;;;;;;24.80;81.90;;;;;;5072664;28;19912;-60
2021/07/09 07:52:47;;;;;;;;;;;25.00;79.20;;;;;;5073226;28;20251;-60
2021/07/09 07:55:13;;;;;;;;;;;25.00;78.10;;;;;;5073154;28;19913;-60
2021/07/09 07:57:39;;;;;;;;;;;25.20;77.80;;;;;;5072785;28;19924;-61
2021/07/09 08:00:05;;;;;;;;;;;25.20;74.30;;;;;;5073089;28;20385;-60
2021/07/09 08:02:31;;;;;;;;;;;25.20;74.30;;;;;;5072911;28;19912;-61
2021/07/09 08:04:57;;;;;;;;;;;25.00;76.40;;;;;;5070545;28;19912;-60
2021/07/09 08:07:23;;;;;;;;;;;24.70;77.40;;;;;;5071528;28;20281;-60
2021/07/09 08:09:49;;;;;;;;;;;25.00;77.10;;;;;;5072068;28;19923;-61
2021/07/09 08:12:15;;;;;;;;;;;25.20;75.90;;;;;;5073039;28;19920;-61
2021/07/09 08:14:41;;;;;;;;;;;25.30;74.80;;;;;;5069473;28;19916;-61
2021/07/09 08:17:07;;;;;;;;;;;25.50;74.50;;;;;;5073071;28;19943;-61
2021/07/09 08:19:33;;;;;;;;;;;25.60;73.00;;;;;;5072347;28;20591;-61
2021/07/09 08:21:59;;;;;;;;;;;25.30;72.80;;;;;;5072492;28;20353;-61
2021/07/09 08:24:25;;;;;;;;;;;25.20;72.30;;;;;;5072776;28;19916;-61
2021/07/09 08:26:51;;;;;;;;;;;25.30;74.30;;;;;;5072752;28;19923;-61
2021/07/09 08:29:17;;;;;;;;;;;25.80;73.30;;;;;;5053286;28;19956;-61
2021/07/09 08:31:42;;;;;;;;;;;26.20;72.20;;;;;;5072091;28;19913;-61
2021/07/09 08:34:08;;;;;;;;;;;26.50;71.40;;;;;;5072642;28;19920;-61
2021/07/09 08:36:34;;;;;;;;;;;27.10;69.40;;;;;;5067870;28;19917;-65
2021/07/09 08:39:01;;;;;;;;;;;27.10;68.00;;;;;;5069940;28;19920;-61
2021/07/09 08:41:27;;;;;;;;;;;27.40;64.40;;;;;;5072212;28;19920;-62
2021/07/09 08:43:53;;;;;;;;;;;27.50;65.50;;;;;;5071346;28;20010;-61
2021/07/09 08:46:20;;;;;;;;;;;28.10;65.70;;;;;;5071549;28;20367;-59
2021/07/09 08:48:46;;;;;;;3.10;1.00;;;29.10;62.10;;;;;;5071355;28;19931;-61
2021/07/09 08:51:12;;;;;;;;;;;29.90;59.20;;;;;;5053909;28;19908;-61
2021/07/09 08:53:38;;;;;;;;;;;30.20;57.20;;;;;;5038813;28;19912;-60
2021/07/09 08:56:05;;;;;;;;;;;30.40;56.30;;;;;;5066348;28;20456;-61
2021/07/09 08:58:30;;;;;;;3.40;1.00;;;30.70;54.40;;;;;;5062381;28;20401;-61
2021/07/09 09:00:57;;;;;;;3.40;1.30;;;30.80;54.50;;;;;;5065805;28;20180;-62
2021/07/09 09:03:24;;;;;;;4.68;1.10;;;30.90;52.80;;;;;;5065726;28;20579;-62
2021/07/09 09:05:52;;;;;;;2.72;1.05;;;30.40;52.60;;;;;;5065308;28;20202;-62
2021/07/09 09:08:22;;;;;;;3.47;1.10;;;29.20;53.60;;;;;;5067285;28;20191;-62
2021/07/09 09:10:49;;;;;;;;;;;28.10;55.00;;;;;;5076341;28;20025;-60
2021/07/09 09:13:16;;;;;;;;;;;27.30;56.60;;;;;;5066715;28;19916;-62
2021/07/09 09:15:44;;;;;;;;;;;27.80;57.80;;;;;;5071552;28;19908;-62
2021/07/09 09:18:20;;;;;;;;;;;29.20;56.10;;;;;;5059390;28;19924;-61
2021/07/09 09:20:56;;;;;;;;;;;30.20;51.00;;;;;;5072272;28;19916;-61
2021/07/09 09:23:22;;;;;;;;;;;31.40;49.70;;;;;;5068669;28;19912;-61
2021/07/09 09:25:48;;;;;;;;;;;31.60;48.50;;;;;;5064950;28;19912;-61
2021/07/09 09:28:14;;;;;;;;;;;30.70;50.00;;;;;;5071410;28;19920;-60
2021/07/09 09:30:41;;;;;;;;;;;31.10;51.30;;;;;;5071242;28;20006;-62
2021/07/09 09:33:08;;;;;;;;;;;32.10;49.00;;;;;;5071241;28;19912;-60
2021/07/09 09:35:37;;;;;;;;;;;32.50;46.90;;;;;;5071575;28;20272;-61
2021/07/09 09:38:06;;;;;;;;;;;32.70;45.70;;;;;;5071210;28;20396;-60
2021/07/09 09:40:33;;;;;;;;;;;32.60;45.30;;;;;;5065632;28;19912;-61
2021/07/09 09:42:59;;;;;;;;;;;32.00;46.30;;;;;;5067646;28;19932;-62
2021/07/09 09:45:25;;;;;;;;;;;31.20;45.80;;;;;;5050059;28;19905;-61
2021/07/09 09:47:51;;;;;;;;;;;30.40;47.30;;;;;;5079225;28;19912;-61
2021/07/09 09:50:18;;;;;;;;;;;30.40;48.30;;;;;;5072214;28;19905;-61
2021/07/09 09:52:44;;;;;;;;;;;30.00;47.30;;;;;;5059044;28;19935;-62
2021/07/09 09:55:13;;;;;;;;;;;29.80;47.10;;;;;;5059358;28;19955;-61
2021/07/09 09:57:40;;;;;;;;;;;29.00;48.00;;;;;;5068295;28;19916;-61
2021/07/09 10:00:10;;;;;;;;;;;27.70;49.80;;;;;;5078471;28;19927;-61
2021/07/09 10:02:36;;;;;;;;;;;27.10;51.70;;;;;;5078385;28;19915;-61
2021/07/09 10:05:05;;;;;;;;;;;27.40;50.40;;;;;;5078051;28;19912;-62
2021/07/09 10:07:35;;;;;;;;;;;28.30;50.30;;;;;;5077614;28;19908;-61
2021/07/09 10:10:02;;;;;;;;;;;28.50;46.70;;;;;;5053164;28;20467;-61
2021/07/09 10:12:28;;;;;;;;;;;27.70;47.90;;;;;;5078395;28;20396;-62
2021/07/09 10:14:53;;;;;;;;;;;27.30;49.60;;;;;;5060864;28;19930;-61
2021/07/09 10:17:21;;;;;;;;;;;27.40;48.50;;;;;;5075618;28;19912;-60
2021/07/09 10:19:47;;;;;;;;;;;27.20;49.00;;;;;;5056604;28;19916;-60
2021/07/09 10:22:13;;;;;;;;;;;27.70;48.80;;;;;;5056990;28;19911;-61
2021/07/09 10:24:42;;;;;;;;;;;27.60;47.50;;;;;;5074736;28;19912;-62
2021/07/09 10:27:08;;;;;;;;;;;27.70;49.30;;;;;;5074714;28;19909;-61
2021/07/09 10:29:34;;;;;;;;;;;28.30;50.40;;;;;;5057279;28;20300;-61
2021/07/09 10:32:01;;;;;;;;;;;28.70;49.20;;;;;;5074823;28;19912;-63
2021/07/09 10:34:37;;;;;;;;;;;28.90;47.90;;;;;;5074857;28;19919;-63
2021/07/09 10:37:08;;;;;;;;;;;29.70;48.10;;;;;;5074998;28;19916;-62
2021/07/09 10:39:43;;;;;;;;;;;30.10;46.00;;;;;;5074666;28;19916;-62
2021/07/09 10:42:15;;;;;;;;;;;29.20;46.20;;;;;;5074628;28;19943;-62
2021/07/09 10:45:00;;;;;;;;;;;29.60;48.00;;;;;;5074732;28;20357;-62
2021/07/09 10:47:38;;;;;;;;;;;30.60;44.40;;;;;;5074588;28;19931;-63
2021/07/09 10:50:20;;;;;;;;;;;30.80;41.40;;;;;;5073780;28;19908;-63
2021/07/09 10:52:48;;;;;;;;;;;30.30;43.00;;;;;;5073531;28;19916;-62
2021/07/09 10:55:27;;;;;;;;;;;29.60;43.90;;;;;;5074748;28;19927;-62
2021/07/09 10:58:09;;;;;;;;;;;28.80;46.30;;;;;;5074316;28;19916;-61
2021/07/09 11:00:41;;;;;;;;;;;27.90;49.00;;;;;;5067319;28;19908;-61
2021/07/09 11:03:07;;;;;;;;;;;27.60;49.20;;;;;;5073631;28;19983;-61
2021/07/09 11:05:42;;;;;;;;;;;27.30;50.30;;;;;;5073263;28;20285;-61
2021/07/09 11:08:27;;;;;;;;;;;26.90;51.10;;;;;;5073700;28;20353;-62
2021/07/09 11:10:59;;;;;;;;;;;26.70;52.30;;;;;;5071372;28;19923;-61
2021/07/09 11:13:40;;;;;;;;;;;26.60;52.60;;;;;;5073145;28;19908;-62
2021/07/09 11:16:18;;;;;;;;;;;26.40;54.00;;;;;;5074276;28;19915;-63
2021/07/09 11:18:50;;;;;;;;;;;26.50;55.00;;;;;;5066364;28;20284;-62
2021/07/09 11:21:32;;;;;;;;;;;26.50;55.10;;;;;;5074165;28;19919;-62
2021/07/09 11:23:58;;;;;;;;;;;26.60;55.30;;;;;;5066972;28;19909;-63
2021/07/09 11:26:27;;;;;;;;;;;26.80;54.70;;;;;;5073821;28;19912;-62
2021/07/09 11:28:53;;;;;;;;;;;26.70;55.10;;;;;;5054005;28;19912;-61
2021/07/09 11:31:29;;;;;;;;;;;26.90;55.30;;;;;;5073538;28;20381;-62
2021/07/09 11:34:02;;;;;;;;;;;26.80;54.50;;;;;;5073946;28;20341;-63
2021/07/09 11:36:28;;;;;;;;;;;26.70;55.30;;;;;;5069143;28;19916;-63
2021/07/09 11:39:04;;;;;;;;;;;27.10;55.50;;;;;;5068102;28;19938;-62
2021/07/09 11:41:29;;;;;;;;;;;27.50;54.00;;;;;;5065908;28;19924;-61
2021/07/09 11:43:55;;;;;;;;;;;27.80;53.00;;;;;;5054220;28;19916;-62
2021/07/09 11:46:21;;;;;;;;;;;28.30;53.20;;;;;;5073295;28;19916;-63
2021/07/09 11:48:47;;;;;;;;;;;28.40;50.60;;;;;;5073479;28;19916;-60
2021/07/09 11:51:13;;;;;;;;;;;28.10;50.70;;;;;;5064536;28;19913;-61
2021/07/09 11:53:39;;;;;;;;;;;27.80;51.20;;;;;;5060806;28;19916;-62
2021/07/09 11:56:15;;;;;;;;;;;27.70;50.70;;;;;;5051106;28;20286;-61
2021/07/09 11:58:40;;;;;;;;;;;27.50;51.90;;;;;;5063258;28;19917;-63
2021/07/09 12:01:17;;;;;;;;;;;27.50;50.30;;;;;;5061354;28;20289;-62
2021/07/09 12:03:49;;;;;;;;;;;27.60;49.30;;;;;;5059548;28;19920;-62
2021/07/09 12:06:21;;;;;;;;;;;27.80;48.80;;;;;;5059240;28;19917;-61
2021/07/09 12:08:56;;;;;;;;;;;27.50;51.10;;;;;;5068078;28;20297;-61
2021/07/09 12:11:22;;;;;;;;;;;27.30;56.30;;;;;;5064880;28;19931;-62
2021/07/09 12:14:00;;;;;;;;;;;27.10;58.50;;;;;;5063425;28;20372;-62
2021/07/09 12:16:27;;;;;;;;;;;27.00;58.40;;;;;;5062986;28;19935;-62
2021/07/09 12:18:53;;;;;;;;;;;26.90;59.10;;;;;;5057831;28;20284;-61
2021/07/09 12:21:19;;;;;;;;;;;26.80;61.10;;;;;;5062253;28;19921;-60
2021/07/09 12:23:44;;;;;;;;;;;26.50;61.80;;;;;;5059966;28;19917;-60
2021/07/09 12:26:10;;;;;;;;;;;26.40;62.50;;;;;;5060874;28;19916;-60
2021/07/09 12:28:36;;;;;;;;;;;26.40;64.10;;;;;;5048984;28;20450;-62
2021/07/09 12:31:03;;;;;;;;;;;26.40;64.30;;;;;;5042173;28;19908;-62
2021/07/09 12:33:35;;;;;;;;;;;26.50;64.30;;;;;;5065783;28;19917;-61
2021/07/09 12:36:02;;;;;;;;;;;26.70;64.90;;;;;;5050387;28;20329;-60
2021/07/09 12:38:28;;;;;;;;;;;26.70;62.70;;;;;;5056684;28;19924;-61
2021/07/09 12:40:59;;;;;;;;;;;26.40;62.20;;;;;;5055147;28;19915;-60
2021/07/09 12:43:26;;;;;;;;;;;26.10;63.70;;;;;;5058938;28;19909;-61
2021/07/09 12:45:53;;;;;;;;;;;26.20;64.10;;;;;;5062004;28;19928;-61
2021/07/09 12:48:31;;;;;;;;;;;26.30;63.50;;;;;;5059687;28;20297;-61
2021/07/09 12:50:57;;;;;;;;;;;26.50;63.40;;;;;;5050817;28;19921;-61
2021/07/09 12:53:23;;;;;;;;;;;26.40;55.50;;;;;;5060573;28;19928;-62
2021/07/09 12:55:50;;;;;;;;;;;26.40;55.10;;;;;;5062820;28;19904;-61
2021/07/09 12:58:19;;;;;;;;;;;26.50;56.00;;;;;;5056537;28;19916;-62
2021/07/09 13:00:45;;;;;;;;;;;26.50;56.30;;;;;;5056349;28;19916;-62
2021/07/09 13:03:23;;;;;;;;;;;26.60;58.60;;;;;;5065739;28;19909;-62
2021/07/09 13:06:05;;;;;;;;;;;26.70;62.00;;;;;;5061589;28;19916;-62
2021/07/09 13:08:32;;;;;;;;;;;26.60;56.40;;;;;;5062687;28;19908;-62
2021/07/09 13:11:04;;;;;;;;;;;26.60;57.60;;;;;;5062006;28;19915;-63
2021/07/09 13:13:33;;;;;;;;;;;26.50;62.20;;;;;;5062235;28;19909;-62
2021/07/09 13:16:00;;;;;;;;;;;26.40;63.10;;;;;;5058731;28;19912;-62
2021/07/09 13:18:27;;;;;;;;;;;26.10;62.90;;;;;;5059965;28;19913;-62
2021/07/09 13:21:11;;;;;;;;;;;25.90;63.40;;;;;;5055299;28;20357;-63
2021/07/09 13:23:38;;;;;;;;;;;25.70;65.10;;;;;;5063279;28;19931;-62
2021/07/09 13:26:05;;;;;;;;;;;25.70;65.30;;;;;;5063280;28;19909;-61
2021/07/09 13:28:37;;;;;;;;;;;25.50;65.10;;;;;;5064083;28;19912;-63
2021/07/09 13:31:03;;;;;;;;;;;25.30;65.80;;;;;;5063920;28;19908;-62
2021/07/09 13:33:29;;;;;;;;;;;25.30;66.70;;;;;;5053153;28;19936;-61
2021/07/09 13:35:55;;;;;;;;;;;25.20;66.70;;;;;;5064339;28;19919;-61
2021/07/09 13:38:21;;;;;;;;;;;25.20;68.60;;;;;;5063871;28;19927;-61
2021/07/09 13:40:47;;;;;;;;;;;25.00;67.50;;;;;;5052637;28;19909;-62
2021/07/09 13:43:13;;;;;;;;;;;24.90;67.20;;;;;;5066470;28;19916;-61
2021/07/09 13:45:39;;;;;;;;;;;25.00;68.60;;;;;;5066212;28;19932;-61
2021/07/09 13:48:05;;;;;;;;;;;25.00;68.20;;;;;;5060793;28;19932;-62
2021/07/09 13:50:31;;;;;;;;;;;25.20;67.90;;;;;;5054029;28;19956;-62
2021/07/09 13:52:57;;;;;;;;;;;25.30;68.30;;;;;;5062668;28;19917;-63
2021/07/09 13:55:23;;;;;;;;;;;25.20;69.00;;;;;;5061358;28;19913;-62
2021/07/09 13:57:49;;;;;;;;;;;25.20;69.20;;;;;;5067318;28;20286;-62
2021/07/09 14:00:16;;;;;;;;;;;25.10;68.70;;;;;;5061604;28;19928;-62
2021/07/09 14:02:43;;;;;;;;;;;24.90;68.60;;;;;;5062241;28;19908;-61
2021/07/09 14:05:09;;;;;;;;;;;24.80;70.00;;;;;;5072929;28;19912;-62
2021/07/09 14:07:35;;;;;;;;;;;24.60;71.30;;;;;;5063393;28;19909;-61
2021/07/09 14:10:03;;;;;;;;;;;24.40;71.80;;;;;;5053646;28;19935;-62
2021/07/09 14:12:29;;;;;;;;;;;24.30;72.60;;;;;;5064269;28;19912;-62
2021/07/09 14:14:55;;;;;;;;;;;24.20;72.90;;;;;;5069540;28;19919;-62
2021/07/09 14:17:21;;;;;;;;;;;24.10;73.70;;;;;;5063703;28;19999;-62